Main page
METAR-TAF:

METAR-TAF

Airports :

Tri-City Airport

Parsons, Kansas, United States

latitude: 37-19-40N, longitude: 095-30-15W, elevation: 899 ft

Current weather observation

The report was made 1 hour and 13 minutes ago, at 10:52 UTC
Calm wind
Temperature 64°F
Humidity 77%
Pressure 29.85 in. Hg
Visibility: 10 miles
Overcast at a height of 3000 ft

METAR: KPPF 231052Z AUTO 00000KT 10SM OVC030 18/14 A2985 RMK AO2 SLP100 T01780139

Time: 07:05 (12:05 UTC)


TAF: missing

Weather observations and forecasts of more than 4000 airports (METAR and TAF reports).

The available stations are represented by yellow and red dots on the map.

Hover mouse over dot to see the name of the station.

Then click to see weather observations and forecasts.

To change the map : click on the green buttons with a black cross to zoom in, on the green button with a dash to zoom out, or on the green arrows for adjacent maps.


METAR-TAF: